Home > Products > Valid Products > TAF

000
FTUS45 KBOU 051120
TAFBJC
TAF
KBJC 051120Z 0512/0612 27005KT P6SM FEW140 BKN200
     FM051400 VRB05KT P6SM SCT140 BKN200
     FM051800 03006KT P6SM SCT090 BKN140
     FM052000 29010KT P6SM SCT070 BKN100
      TEMPO 0520/0524 VRB22G34KT -TSRA BKN060CB
     FM060100 33010KT P6SM VCSH SCT080 BKN120
     FM060600 36012G18KT P6SM SCT080 BKN120
     FM060900 36010KT P6SM VCSH BKN012 OVC030 PROB30 0609/0612
      -SHRA=



000
FTUS45 KBOU 051120
TAFAPA
TAF
KAPA 051120Z 0512/0612 19005KT P6SM FEW140 BKN200
     FM051500 VRB04KT P6SM SCT140 BKN200
     FM051800 07008KT P6SM SCT090 BKN140
     FM052100 29010KT P6SM SCT080 BKN110
      TEMPO 0521/0601 VRB20G30KT -TSRA BKN060CB
     FM060100 33008KT P6SM VCSH SCT080 BKN120
     FM060600 36012G18KT P6SM SCT080 BKN120
     FM060900 36012KT P6SM VCSH BKN012 OVC030 PROB30 0609/0612
      -SHRA=



000
FTUS45 KBOU 051120
TAFAPA
TAF
KAPA 051120Z 0512/0612 19005KT P6SM FEW140 BKN200
     FM051500 VRB04KT P6SM SCT140 BKN200
     FM051800 07008KT P6SM SCT090 BKN140
     FM052100 29010KT P6SM SCT080 BKN110
      TEMPO 0521/0601 VRB20G30KT -TSRA BKN060CB
     FM060100 33008KT P6SM VCSH SCT080 BKN120
     FM060600 36012G18KT P6SM SCT080 BKN120
     FM060900 36012KT P6SM VCSH BKN012 OVC030 PROB30 0609/0612
      -SHRA=



000
FTUS45 KBOU 051120
TAFDEN
TAF
KDEN 051120Z 0512/0618 22011KT P6SM FEW140 BKN200
     FM051400 24006KT P6SM FEW140 BKN200
     FM051600 VRB05KT P6SM SCT140 BKN200
     FM051800 07008KT P6SM SCT090 BKN140
     FM052100 29010KT P6SM SCT080 BKN110 PROB30 0521/0601 VRB20G32KT
      -TSRA BKN060CB
     FM060100 33010KT P6SM VCSH SCT080 BKN120
     FM060600 01012G18KT P6SM SCT080 BKN120
     FM060900 02012KT P6SM VCSH BKN015 OVC040 PROB30 0609/0615
      -SHRA=



000
FTUS45 KBOU 051120
TAFBJC
TAF
KBJC 051120Z 0512/0612 27005KT P6SM FEW140 BKN200
     FM051400 VRB05KT P6SM SCT140 BKN200
     FM051800 03006KT P6SM SCT090 BKN140
     FM052000 29010KT P6SM SCT070 BKN100
      TEMPO 0520/0524 VRB22G34KT -TSRA BKN060CB
     FM060100 33010KT P6SM VCSH SCT080 BKN120
     FM060600 36012G18KT P6SM SCT080 BKN120
     FM060900 36010KT P6SM VCSH BKN012 OVC030 PROB30 0609/0612
      -SHRA=



000
FTUS45 KBOU 051120
TAFDEN
TAF
KDEN 051120Z 0512/0618 22011KT P6SM FEW140 BKN200
     FM051400 24006KT P6SM FEW140 BKN200
     FM051600 VRB05KT P6SM SCT140 BKN200
     FM051800 07008KT P6SM SCT090 BKN140
     FM052100 29010KT P6SM SCT080 BKN110 PROB30 0521/0601 VRB20G32KT
      -TSRA BKN060CB
     FM060100 33010KT P6SM VCSH SCT080 BKN120
     FM060600 01012G18KT P6SM SCT080 BKN120
     FM060900 02012KT P6SM VCSH BKN015 OVC040 PROB30 0609/0615
      -SHRA=



000
FTUS45 KBOU 050858 AAA
TAFDEN
TAF AMD
KDEN 050858Z 0509/0612 22011KT P6SM FEW140 BKN200
     FM051300 24006KT P6SM SCT140 BKN200
     FM051800 07008KT P6SM SCT090 BKN140
     FM052100 29010KT P6SM SCT080 BKN140 PROB30 0522/0602 VRB20G30KT
      -TSRA BKN080CB
     FM060300 36010KT P6SM VCSH SCT080 BKN120
     FM060600 02012G18KT P6SM SCT080 BKN120
     FM060900 02012KT P6SM VCSH BKN015=



000
FTUS45 KBOU 050858 AAA
TAFDEN
TAF AMD
KDEN 050858Z 0509/0612 22011KT P6SM FEW140 BKN200
     FM051300 24006KT P6SM SCT140 BKN200
     FM051800 07008KT P6SM SCT090 BKN140
     FM052100 29010KT P6SM SCT080 BKN140 PROB30 0522/0602 VRB20G30KT
      -TSRA BKN080CB
     FM060300 36010KT P6SM VCSH SCT080 BKN120
     FM060600 02012G18KT P6SM SCT080 BKN120
     FM060900 02012KT P6SM VCSH BKN015=



000
FTUS45 KBOU 050858 AAA
TAFDEN
TAF AMD
KDEN 050858Z 0509/0612 22011KT P6SM FEW140 BKN200
     FM051300 24006KT P6SM SCT140 BKN200
     FM051800 07008KT P6SM SCT090 BKN140
     FM052100 29010KT P6SM SCT080 BKN140 PROB30 0522/0602 VRB20G30KT
      -TSRA BKN080CB
     FM060300 36010KT P6SM VCSH SCT080 BKN120
     FM060600 02012G18KT P6SM SCT080 BKN120
     FM060900 02012KT P6SM VCSH BKN015=



000
FTUS45 KBOU 050535
TAFBJC
TAF
KBJC 050535Z 0506/0606 27007KT P6SM FEW140 BKN200
     FM051200 VRB05KT P6SM SCT140 BKN200
     FM051800 03006KT P6SM SCT090 BKN140
     FM052100 29010KT P6SM SCT090 BKN140 PROB30 0522/0524 VRB20G30KT
      -TSRA BKN080CB
     FM060300 33010KT P6SM VCSH SCT080 BKN120=



000
FTUS45 KBOU 050535
TAFDEN
TAF
KDEN 050535Z 0506/0612 21012KT P6SM FEW140 BKN200
     FM051300 24006KT P6SM SCT140 BKN200
     FM051800 07008KT P6SM SCT090 BKN140
     FM052100 29010KT P6SM SCT080 BKN140 PROB30 0522/0602 VRB20G30KT
      -TSRA BKN080CB
     FM060300 36010KT P6SM VCSH SCT080 BKN120
     FM060600 02012G18KT P6SM SCT080 BKN120
     FM060900 02012KT P6SM VCSH BKN015=



000
FTUS45 KBOU 050535
TAFAPA
TAF
KAPA 050535Z 0506/0606 19008KT P6SM FEW140 BKN200
     FM051300 23004KT P6SM SCT140 BKN200
     FM051800 07008KT P6SM SCT090 BKN140
     FM052100 25010KT P6SM SCT090 BKN140 PROB30 0522/0602 VRB20G30KT
      -TSRA BKN080CB
     FM060300 33008KT P6SM VCSH SCT080 BKN120=



000
FTUS45 KBOU 050535
TAFAPA
TAF
KAPA 050535Z 0506/0606 19008KT P6SM FEW140 BKN200
     FM051300 23004KT P6SM SCT140 BKN200
     FM051800 07008KT P6SM SCT090 BKN140
     FM052100 25010KT P6SM SCT090 BKN140 PROB30 0522/0602 VRB20G30KT
      -TSRA BKN080CB
     FM060300 33008KT P6SM VCSH SCT080 BKN120=



000
FTUS45 KBOU 050535
TAFBJC
TAF
KBJC 050535Z 0506/0606 27007KT P6SM FEW140 BKN200
     FM051200 VRB05KT P6SM SCT140 BKN200
     FM051800 03006KT P6SM SCT090 BKN140
     FM052100 29010KT P6SM SCT090 BKN140 PROB30 0522/0524 VRB20G30KT
      -TSRA BKN080CB
     FM060300 33010KT P6SM VCSH SCT080 BKN120=



000
FTUS45 KBOU 050535
TAFDEN
TAF
KDEN 050535Z 0506/0612 21012KT P6SM FEW140 BKN200
     FM051300 24006KT P6SM SCT140 BKN200
     FM051800 07008KT P6SM SCT090 BKN140
     FM052100 29010KT P6SM SCT080 BKN140 PROB30 0522/0602 VRB20G30KT
      -TSRA BKN080CB
     FM060300 36010KT P6SM VCSH SCT080 BKN120
     FM060600 02012G18KT P6SM SCT080 BKN120
     FM060900 02012KT P6SM VCSH BKN015=



000
FTUS45 KBOU 050412 AAA
TAFAPA
TAF AMD
KAPA 050412Z 0504/0524 22012KT P6SM SCT110 BKN140
     FM050500 19009KT P6SM FEW110 SCT140
     FM051300 21004KT P6SM SCT140 BKN200
     FM051800 12008KT P6SM SCT090 BKN140
     FM052100 25010KT P6SM SCT090 BKN140 PROB30 0522/0524 VRB20G30KT
      -TSRA BKN080CB=



000
FTUS45 KBOU 050412 AAA
TAFAPA
TAF AMD
KAPA 050412Z 0504/0524 22012KT P6SM SCT110 BKN140
     FM050500 19009KT P6SM FEW110 SCT140
     FM051300 21004KT P6SM SCT140 BKN200
     FM051800 12008KT P6SM SCT090 BKN140
     FM052100 25010KT P6SM SCT090 BKN140 PROB30 0522/0524 VRB20G30KT
      -TSRA BKN080CB=



000
FTUS45 KBOU 050412 AAA
TAFAPA
TAF AMD
KAPA 050412Z 0504/0524 22012KT P6SM SCT110 BKN140
     FM050500 19009KT P6SM FEW110 SCT140
     FM051300 21004KT P6SM SCT140 BKN200
     FM051800 12008KT P6SM SCT090 BKN140
     FM052100 25010KT P6SM SCT090 BKN140 PROB30 0522/0524 VRB20G30KT
      -TSRA BKN080CB=



000
FTUS45 KBOU 050412 AAA
TAFAPA
TAF AMD
KAPA 050412Z 0504/0524 22012KT P6SM SCT110 BKN140
     FM050500 19009KT P6SM FEW110 SCT140
     FM051300 21004KT P6SM SCT140 BKN200
     FM051800 12008KT P6SM SCT090 BKN140
     FM052100 25010KT P6SM SCT090 BKN140 PROB30 0522/0524 VRB20G30KT
      -TSRA BKN080CB=



000
FTUS45 KBOU 050301 AAA
TAFBJC
TAF AMD
KBJC 050301Z 0503/0524 24015KT P6SM SCT090 BKN140
     FM050500 27007KT P6SM FEW090 BKN140
     FM051100 VRB05KT P6SM SCT140 BKN200
     FM051800 12008KT P6SM SCT090 BKN140
     FM052100 25010KT P6SM SCT090 BKN140 PROB30 0522/0524 VRB20G30KT
      -TSRA BKN080CB=



000
FTUS45 KBOU 050301 AAA
TAFBJC
TAF AMD
KBJC 050301Z 0503/0524 24015KT P6SM SCT090 BKN140
     FM050500 27007KT P6SM FEW090 BKN140
     FM051100 VRB05KT P6SM SCT140 BKN200
     FM051800 12008KT P6SM SCT090 BKN140
     FM052100 25010KT P6SM SCT090 BKN140 PROB30 0522/0524 VRB20G30KT
      -TSRA BKN080CB=



000
FTUS45 KBOU 050300 AAB
TAFDEN
TAF AMD
KDEN 050300Z 0503/0606 21012KT P6SM FEW090 BKN140 BKN200
     FM051300 24006KT P6SM SCT140 BKN200
     FM051800 12008KT P6SM SCT090 BKN140
     FM052100 25010KT P6SM SCT090 BKN140 PROB30 0522/0601 VRB20G30KT
      -TSRA BKN080CB
     FM060300 36012KT P6SM VCSH SCT090 BKN140=



000
FTUS45 KBOU 050300 AAB
TAFDEN
TAF AMD
KDEN 050300Z 0503/0606 21012KT P6SM FEW090 BKN140 BKN200
     FM051300 24006KT P6SM SCT140 BKN200
     FM051800 12008KT P6SM SCT090 BKN140
     FM052100 25010KT P6SM SCT090 BKN140 PROB30 0522/0601 VRB20G30KT
      -TSRA BKN080CB
     FM060300 36012KT P6SM VCSH SCT090 BKN140=



000
FTUS45 KBOU 050300 AAB
TAFDEN
TAF AMD
KDEN 050300Z 0503/0606 21012KT P6SM FEW090 BKN140 BKN200
     FM051300 24006KT P6SM SCT140 BKN200
     FM051800 12008KT P6SM SCT090 BKN140
     FM052100 25010KT P6SM SCT090 BKN140 PROB30 0522/0601 VRB20G30KT
      -TSRA BKN080CB
     FM060300 36012KT P6SM VCSH SCT090 BKN140=



000
FTUS45 KBOU 050059 AAA
TAFDEN
TAF AMD
KDEN 050059Z 0501/0606 21012KT P6SM FEW090 SCT140 BKN200
     FM051300 24006KT P6SM SCT140 BKN200
     FM051800 12008KT P6SM SCT090 BKN140
     FM052100 25010KT P6SM SCT090 BKN140 PROB30 0522/0601 VRB20G30KT
      -TSRA BKN080CB
     FM060300 36012KT P6SM VCSH SCT090 BKN140=



000
FTUS45 KBOU 050059 AAA
TAFDEN
TAF AMD
KDEN 050059Z 0501/0606 21012KT P6SM FEW090 SCT140 BKN200
     FM051300 24006KT P6SM SCT140 BKN200
     FM051800 12008KT P6SM SCT090 BKN140
     FM052100 25010KT P6SM SCT090 BKN140 PROB30 0522/0601 VRB20G30KT
      -TSRA BKN080CB
     FM060300 36012KT P6SM VCSH SCT090 BKN140=



000
FTUS45 KBOU 050059 AAA
TAFDEN
TAF AMD
KDEN 050059Z 0501/0606 21012KT P6SM FEW090 SCT140 BKN200
     FM051300 24006KT P6SM SCT140 BKN200
     FM051800 12008KT P6SM SCT090 BKN140
     FM052100 25010KT P6SM SCT090 BKN140 PROB30 0522/0601 VRB20G30KT
      -TSRA BKN080CB
     FM060300 36012KT P6SM VCSH SCT090 BKN140=



000
FTUS45 KBOU 042324
TAFAPA
TAF
KAPA 042324Z 0500/0524 02006KT P6SM SCT080 BKN140
      TEMPO 0500/0501 VRB20G30KT -TSRA BKN060CB
     FM050100 14008KT P6SM SCT090 BKN140
     FM050500 19007KT P6SM FEW090 SCT140
     FM051300 21004KT P6SM SCT140 BKN200
     FM051800 12008KT P6SM SCT090 BKN140
     FM052100 25010KT P6SM SCT090 BKN140 PROB30 0522/0524 VRB20G30KT
      -TSRA BKN080CB=



000
FTUS45 KBOU 042324
TAFDEN
TAF
KDEN 042324Z 0500/0606 26010KT P6SM VCTS SCT090CB BKN140
      TEMPO 0500/0501 VRB20G30KT
     FM050100 16008KT P6SM SCT090 BKN140
     FM050600 21010KT P6SM FEW090 SCT140
     FM051300 24006KT P6SM SCT140 BKN200
     FM051800 12008KT P6SM SCT090 BKN140
     FM052100 25010KT P6SM SCT090 BKN140 PROB30 0522/0601 VRB20G30KT
      -TSRA BKN080CB
     FM060300 36012KT P6SM VCSH SCT090 BKN140=



000
FTUS45 KBOU 042324
TAFBJC
TAF
KBJC 042324Z 0500/0524 32006KT P6SM VCTS SCT090CB BKN140
     FM050100 32007KT P6SM SCT090 BKN140
     FM050400 27007KT P6SM FEW090 SCT140
     FM051100 VRB05KT P6SM SCT140 BKN200
     FM051800 12008KT P6SM SCT090 BKN140
     FM052100 25010KT P6SM SCT090 BKN140 PROB30 0522/0524 VRB20G30KT
      -TSRA BKN080CB=



000
FTUS45 KBOU 042324
TAFDEN
TAF
KDEN 042324Z 0500/0606 26010KT P6SM VCTS SCT090CB BKN140
      TEMPO 0500/0501 VRB20G30KT
     FM050100 16008KT P6SM SCT090 BKN140
     FM050600 21010KT P6SM FEW090 SCT140
     FM051300 24006KT P6SM SCT140 BKN200
     FM051800 12008KT P6SM SCT090 BKN140
     FM052100 25010KT P6SM SCT090 BKN140 PROB30 0522/0601 VRB20G30KT
      -TSRA BKN080CB
     FM060300 36012KT P6SM VCSH SCT090 BKN140=



000
FTUS45 KBOU 042324
TAFAPA
TAF
KAPA 042324Z 0500/0524 02006KT P6SM SCT080 BKN140
      TEMPO 0500/0501 VRB20G30KT -TSRA BKN060CB
     FM050100 14008KT P6SM SCT090 BKN140
     FM050500 19007KT P6SM FEW090 SCT140
     FM051300 21004KT P6SM SCT140 BKN200
     FM051800 12008KT P6SM SCT090 BKN140
     FM052100 25010KT P6SM SCT090 BKN140 PROB30 0522/0524 VRB20G30KT
      -TSRA BKN080CB=



000
FTUS45 KBOU 042324
TAFBJC
TAF
KBJC 042324Z 0500/0524 32006KT P6SM VCTS SCT090CB BKN140
     FM050100 32007KT P6SM SCT090 BKN140
     FM050400 27007KT P6SM FEW090 SCT140
     FM051100 VRB05KT P6SM SCT140 BKN200
     FM051800 12008KT P6SM SCT090 BKN140
     FM052100 25010KT P6SM SCT090 BKN140 PROB30 0522/0524 VRB20G30KT
      -TSRA BKN080CB=



000
FTUS45 KBOU 042002 AAB
TAFDEN
TAF AMD
KDEN 042002Z 0420/0524 02010KT P6SM FEW090 FEW120
     FM042200 02008KT P6SM VCTS SCT090CB BKN140
      TEMPO 0422/0501 VRB18G28KT
     FM050100 16008KT P6SM SCT090 BKN140
     FM050500 21010KT P6SM FEW090 SCT140
     FM051300 24006KT P6SM SCT140 BKN200
     FM051900 12008KT P6SM SCT090 BKN140 PROB30 0521/0524 VRB20G30KT
      -TSRA BKN080CB=



000
FTUS45 KBOU 042002 AAB
TAFDEN
TAF AMD
KDEN 042002Z 0420/0524 02010KT P6SM FEW090 FEW120
     FM042200 02008KT P6SM VCTS SCT090CB BKN140
      TEMPO 0422/0501 VRB18G28KT
     FM050100 16008KT P6SM SCT090 BKN140
     FM050500 21010KT P6SM FEW090 SCT140
     FM051300 24006KT P6SM SCT140 BKN200
     FM051900 12008KT P6SM SCT090 BKN140 PROB30 0521/0524 VRB20G30KT
      -TSRA BKN080CB=



000
FTUS45 KBOU 041912 AAA
TAFDEN
TAF AMD
KDEN 041912Z 0419/0524 06012KT P6SM FEW090 FEW120
     FM042200 02008KT P6SM VCTS SCT090CB BKN140
      TEMPO 0422/0501 VRB18G28KT
     FM050100 16008KT P6SM SCT090 BKN140
     FM050500 21010KT P6SM FEW090 SCT140
     FM051300 24006KT P6SM SCT140 BKN200
     FM051900 12008KT P6SM SCT090 BKN140 PROB30 0521/0524 VRB20G30KT
      -TSRA BKN080CB=



000
FTUS45 KBOU 041912 AAA
TAFDEN
TAF AMD
KDEN 041912Z 0419/0524 06012KT P6SM FEW090 FEW120
     FM042200 02008KT P6SM VCTS SCT090CB BKN140
      TEMPO 0422/0501 VRB18G28KT
     FM050100 16008KT P6SM SCT090 BKN140
     FM050500 21010KT P6SM FEW090 SCT140
     FM051300 24006KT P6SM SCT140 BKN200
     FM051900 12008KT P6SM SCT090 BKN140 PROB30 0521/0524 VRB20G30KT
      -TSRA BKN080CB=



000
FTUS45 KBOU 041736
TAFDEN
TAF
KDEN 041736Z 0418/0524 36006KT P6SM FEW090 FEW120
     FM042200 02008KT P6SM VCTS SCT090CB BKN140
      TEMPO 0422/0501 VRB18G28KT
     FM050100 16008KT P6SM SCT090 BKN140
     FM050500 21010KT P6SM FEW090 SCT140
     FM051300 24006KT P6SM SCT140 BKN200
     FM051900 12008KT P6SM SCT090 BKN140 PROB30 0521/0524 VRB20G30KT
      -TSRA BKN080CB=



000
FTUS45 KBOU 041736
TAFBJC
TAF
KBJC 041736Z 0418/0518 05006KT P6SM FEW090 FEW120
     FM042100 07008KT P6SM VCTS SCT090CB BKN140
      TEMPO 0421/0424 VRB18G30KT
     FM050100 31007KT P6SM SCT090 BKN140
     FM050400 27007KT P6SM FEW090 SCT140
     FM051100 00000KT P6SM SCT140 BKN200=



000
FTUS45 KBOU 041736
TAFAPA
TAF
KAPA 041736Z 0418/0518 36006KT P6SM FEW090 FEW120
     FM042200 02008KT P6SM VCTS SCT090CB BKN140
      TEMPO 0422/0501 VRB18G28KT
     FM050100 14008KT P6SM SCT090 BKN140
     FM050500 19007KT P6SM FEW090 SCT140
     FM051300 21004KT P6SM SCT140 BKN200=



000
FTUS45 KBOU 041736
TAFBJC
TAF
KBJC 041736Z 0418/0518 05006KT P6SM FEW090 FEW120
     FM042100 07008KT P6SM VCTS SCT090CB BKN140
      TEMPO 0421/0424 VRB18G30KT
     FM050100 31007KT P6SM SCT090 BKN140
     FM050400 27007KT P6SM FEW090 SCT140
     FM051100 00000KT P6SM SCT140 BKN200=



000
FTUS45 KBOU 041736
TAFAPA
TAF
KAPA 041736Z 0418/0518 36006KT P6SM FEW090 FEW120
     FM042200 02008KT P6SM VCTS SCT090CB BKN140
      TEMPO 0422/0501 VRB18G28KT
     FM050100 14008KT P6SM SCT090 BKN140
     FM050500 19007KT P6SM FEW090 SCT140
     FM051300 21004KT P6SM SCT140 BKN200=



000
FTUS45 KBOU 041736
TAFDEN
TAF
KDEN 041736Z 0418/0524 36006KT P6SM FEW090 FEW120
     FM042200 02008KT P6SM VCTS SCT090CB BKN140
      TEMPO 0422/0501 VRB18G28KT
     FM050100 16008KT P6SM SCT090 BKN140
     FM050500 21010KT P6SM FEW090 SCT140
     FM051300 24006KT P6SM SCT140 BKN200
     FM051900 12008KT P6SM SCT090 BKN140 PROB30 0521/0524 VRB20G30KT
      -TSRA BKN080CB=



000
FTUS45 KBOU 041736
TAFAPA
TAF
KAPA 041736Z 0418/0518 36006KT P6SM FEW090 FEW120
     FM042200 02008KT P6SM VCTS SCT090CB BKN140
      TEMPO 0422/0501 VRB18G28KT
     FM050100 14008KT P6SM SCT090 BKN140
     FM050500 19007KT P6SM FEW090 SCT140
     FM051300 21004KT P6SM SCT140 BKN200=



000
FTUS45 KBOU 041736
TAFBJC
TAF
KBJC 041736Z 0418/0518 05006KT P6SM FEW090 FEW120
     FM042100 07008KT P6SM VCTS SCT090CB BKN140
      TEMPO 0421/0424 VRB18G30KT
     FM050100 31007KT P6SM SCT090 BKN140
     FM050400 27007KT P6SM FEW090 SCT140
     FM051100 00000KT P6SM SCT140 BKN200=



000
FTUS45 KBOU 041736
TAFDEN
TAF
KDEN 041736Z 0418/0524 36006KT P6SM FEW090 FEW120
     FM042200 02008KT P6SM VCTS SCT090CB BKN140
      TEMPO 0422/0501 VRB18G28KT
     FM050100 16008KT P6SM SCT090 BKN140
     FM050500 21010KT P6SM FEW090 SCT140
     FM051300 24006KT P6SM SCT140 BKN200
     FM051900 12008KT P6SM SCT090 BKN140 PROB30 0521/0524 VRB20G30KT
      -TSRA BKN080CB=



000
FTUS45 KBOU 041736
TAFBJC
TAF
KBJC 041736Z 0418/0518 05006KT P6SM FEW090 FEW120
     FM042100 07008KT P6SM VCTS SCT090CB BKN140
      TEMPO 0421/0424 VRB18G30KT
     FM050100 31007KT P6SM SCT090 BKN140
     FM050400 27007KT P6SM FEW090 SCT140
     FM051100 00000KT P6SM SCT140 BKN200=



000
FTUS45 KBOU 041736
TAFDEN
TAF
KDEN 041736Z 0418/0524 36006KT P6SM FEW090 FEW120
     FM042200 02008KT P6SM VCTS SCT090CB BKN140
      TEMPO 0422/0501 VRB18G28KT
     FM050100 16008KT P6SM SCT090 BKN140
     FM050500 21010KT P6SM FEW090 SCT140
     FM051300 24006KT P6SM SCT140 BKN200
     FM051900 12008KT P6SM SCT090 BKN140 PROB30 0521/0524 VRB20G30KT
      -TSRA BKN080CB=



000
FTUS45 KBOU 041736
TAFAPA
TAF
KAPA 041736Z 0418/0518 36006KT P6SM FEW090 FEW120
     FM042200 02008KT P6SM VCTS SCT090CB BKN140
      TEMPO 0422/0501 VRB18G28KT
     FM050100 14008KT P6SM SCT090 BKN140
     FM050500 19007KT P6SM FEW090 SCT140
     FM051300 21004KT P6SM SCT140 BKN200=



000
FTUS45 KBOU 041508 AAA
TAFDEN
TAF AMD
KDEN 041508Z 0415/0518 27005KT P6SM FEW120 SCT200
     FM041800 36006KT P6SM SCT090 SCT120
     FM042100 02008KT P6SM VCTS SCT090CB BKN140
      TEMPO 0421/0424 VRB20G32KT
     FM050200 14007KT P6SM SCT090 BKN140
     FM050500 21010KT P6SM FEW140 SCT200
     FM051300 24007KT P6SM SCT140 BKN200=



000
FTUS45 KBOU 041508 AAA
TAFDEN
TAF AMD
KDEN 041508Z 0415/0518 27005KT P6SM FEW120 SCT200
     FM041800 36006KT P6SM SCT090 SCT120
     FM042100 02008KT P6SM VCTS SCT090CB BKN140
      TEMPO 0421/0424 VRB20G32KT
     FM050200 14007KT P6SM SCT090 BKN140
     FM050500 21010KT P6SM FEW140 SCT200
     FM051300 24007KT P6SM SCT140 BKN200=



000
FTUS45 KBOU 041508 AAA
TAFDEN
TAF AMD
KDEN 041508Z 0415/0518 27005KT P6SM FEW120 SCT200
     FM041800 36006KT P6SM SCT090 SCT120
     FM042100 02008KT P6SM VCTS SCT090CB BKN140
      TEMPO 0421/0424 VRB20G32KT
     FM050200 14007KT P6SM SCT090 BKN140
     FM050500 21010KT P6SM FEW140 SCT200
     FM051300 24007KT P6SM SCT140 BKN200=



000
FTUS45 KBOU 041508 AAA
TAFDEN
TAF AMD
KDEN 041508Z 0415/0518 27005KT P6SM FEW120 SCT200
     FM041800 36006KT P6SM SCT090 SCT120
     FM042100 02008KT P6SM VCTS SCT090CB BKN140
      TEMPO 0421/0424 VRB20G32KT
     FM050200 14007KT P6SM SCT090 BKN140
     FM050500 21010KT P6SM FEW140 SCT200
     FM051300 24007KT P6SM SCT140 BKN200=



000
FTUS45 KBOU 041127
TAFAPA
TAF
KAPA 041127Z 0412/0512 23006KT P6SM FEW120 SCT200
     FM041500 VRB05KT P6SM FEW120 SCT200
     FM041800 36006KT P6SM SCT090 SCT120
     FM042000 02008KT P6SM VCTS SCT090CB BKN140
      TEMPO 0420/0424 VRB20G32KT
     FM050200 14008KT P6SM SCT090 BKN140
     FM050400 19007KT P6SM FEW140 SCT200=



000
FTUS45 KBOU 041127
TAFDEN
TAF
KDEN 041127Z 0412/0518 25007KT P6SM SCT120 SCT200
     FM041500 VRB05KT P6SM FEW120 SCT200
     FM041800 36006KT P6SM SCT090 SCT120
     FM042100 02008KT P6SM VCTS SCT090CB BKN140
      TEMPO 0421/0424 VRB20G32KT
     FM050200 14007KT P6SM SCT090 BKN140
     FM050500 21010KT P6SM FEW140 SCT200
     FM051300 24007KT P6SM SCT140 BKN200=



000
FTUS45 KBOU 041127
TAFBJC
TAF
KBJC 041127Z 0412/0512 VRB04KT P6SM FEW120 SCT200
     FM041800 36006KT P6SM SCT090 SCT120
     FM042000 02008KT P6SM VCTS SCT090CB BKN140
      TEMPO 0420/0423 VRB20G32KT
     FM050200 VRB06KT P6SM SCT090 BKN140
     FM050400 29007KT P6SM FEW140 SCT200=



000
FTUS45 KBOU 041127
TAFAPA
TAF
KAPA 041127Z 0412/0512 23006KT P6SM FEW120 SCT200
     FM041500 VRB05KT P6SM FEW120 SCT200
     FM041800 36006KT P6SM SCT090 SCT120
     FM042000 02008KT P6SM VCTS SCT090CB BKN140
      TEMPO 0420/0424 VRB20G32KT
     FM050200 14008KT P6SM SCT090 BKN140
     FM050400 19007KT P6SM FEW140 SCT200=



000
FTUS45 KBOU 041127
TAFBJC
TAF
KBJC 041127Z 0412/0512 VRB04KT P6SM FEW120 SCT200
     FM041800 36006KT P6SM SCT090 SCT120
     FM042000 02008KT P6SM VCTS SCT090CB BKN140
      TEMPO 0420/0423 VRB20G32KT
     FM050200 VRB06KT P6SM SCT090 BKN140
     FM050400 29007KT P6SM FEW140 SCT200=



000
FTUS45 KBOU 041127
TAFDEN
TAF
KDEN 041127Z 0412/0518 25007KT P6SM SCT120 SCT200
     FM041500 VRB05KT P6SM FEW120 SCT200
     FM041800 36006KT P6SM SCT090 SCT120
     FM042100 02008KT P6SM VCTS SCT090CB BKN140
      TEMPO 0421/0424 VRB20G32KT
     FM050200 14007KT P6SM SCT090 BKN140
     FM050500 21010KT P6SM FEW140 SCT200
     FM051300 24007KT P6SM SCT140 BKN200=



000
FTUS45 KBOU 041127
TAFDEN
TAF
KDEN 041127Z 0412/0518 25007KT P6SM SCT120 SCT200
     FM041500 VRB05KT P6SM FEW120 SCT200
     FM041800 36006KT P6SM SCT090 SCT120
     FM042100 02008KT P6SM VCTS SCT090CB BKN140
      TEMPO 0421/0424 VRB20G32KT
     FM050200 14007KT P6SM SCT090 BKN140
     FM050500 21010KT P6SM FEW140 SCT200
     FM051300 24007KT P6SM SCT140 BKN200=



000
FTUS45 KBOU 041127
TAFAPA
TAF
KAPA 041127Z 0412/0512 23006KT P6SM FEW120 SCT200
     FM041500 VRB05KT P6SM FEW120 SCT200
     FM041800 36006KT P6SM SCT090 SCT120
     FM042000 02008KT P6SM VCTS SCT090CB BKN140
      TEMPO 0420/0424 VRB20G32KT
     FM050200 14008KT P6SM SCT090 BKN140
     FM050400 19007KT P6SM FEW140 SCT200=



000
FTUS45 KBOU 041127
TAFBJC
TAF
KBJC 041127Z 0412/0512 VRB04KT P6SM FEW120 SCT200
     FM041800 36006KT P6SM SCT090 SCT120
     FM042000 02008KT P6SM VCTS SCT090CB BKN140
      TEMPO 0420/0423 VRB20G32KT
     FM050200 VRB06KT P6SM SCT090 BKN140
     FM050400 29007KT P6SM FEW140 SCT200=



000
FTUS45 KBOU 041127
TAFDEN
TAF
KDEN 041127Z 0412/0518 25007KT P6SM SCT120 SCT200
     FM041500 VRB05KT P6SM FEW120 SCT200
     FM041800 36006KT P6SM SCT090 SCT120
     FM042100 02008KT P6SM VCTS SCT090CB BKN140
      TEMPO 0421/0424 VRB20G32KT
     FM050200 14007KT P6SM SCT090 BKN140
     FM050500 21010KT P6SM FEW140 SCT200
     FM051300 24007KT P6SM SCT140 BKN200=



000
FTUS45 KBOU 041127
TAFAPA
TAF
KAPA 041127Z 0412/0512 23006KT P6SM FEW120 SCT200
     FM041500 VRB05KT P6SM FEW120 SCT200
     FM041800 36006KT P6SM SCT090 SCT120
     FM042000 02008KT P6SM VCTS SCT090CB BKN140
      TEMPO 0420/0424 VRB20G32KT
     FM050200 14008KT P6SM SCT090 BKN140
     FM050400 19007KT P6SM FEW140 SCT200=



000
FTUS45 KBOU 041127
TAFBJC
TAF
KBJC 041127Z 0412/0512 VRB04KT P6SM FEW120 SCT200
     FM041800 36006KT P6SM SCT090 SCT120
     FM042000 02008KT P6SM VCTS SCT090CB BKN140
      TEMPO 0420/0423 VRB20G32KT
     FM050200 VRB06KT P6SM SCT090 BKN140
     FM050400 29007KT P6SM FEW140 SCT200=



000
FTUS45 KBOU 040900 AAA
TAFDEN
TAF AMD
KDEN 040900Z 0409/0512 20010KT P6SM FEW120 SCT200
     FM041300 25006KT P6SM FEW090 SCT200
     FM041800 36006KT P6SM SCT090 SCT120
     FM042100 02008KT P6SM VCTS SCT090CB BKN140
      TEMPO 0421/0424 VRB20G32KT
     FM050200 14007KT P6SM SCT090 BKN140
     FM050500 21010KT P6SM FEW140 SCT200=



000
FTUS45 KBOU 040900 AAA
TAFDEN
TAF AMD
KDEN 040900Z 0409/0512 20010KT P6SM FEW120 SCT200
     FM041300 25006KT P6SM FEW090 SCT200
     FM041800 36006KT P6SM SCT090 SCT120
     FM042100 02008KT P6SM VCTS SCT090CB BKN140
      TEMPO 0421/0424 VRB20G32KT
     FM050200 14007KT P6SM SCT090 BKN140
     FM050500 21010KT P6SM FEW140 SCT200=



000
FTUS45 KBOU 040900 AAA
TAFDEN
TAF AMD
KDEN 040900Z 0409/0512 20010KT P6SM FEW120 SCT200
     FM041300 25006KT P6SM FEW090 SCT200
     FM041800 36006KT P6SM SCT090 SCT120
     FM042100 02008KT P6SM VCTS SCT090CB BKN140
      TEMPO 0421/0424 VRB20G32KT
     FM050200 14007KT P6SM SCT090 BKN140
     FM050500 21010KT P6SM FEW140 SCT200=



000
FTUS45 KBOU 040900 AAA
TAFDEN
TAF AMD
KDEN 040900Z 0409/0512 20010KT P6SM FEW120 SCT200
     FM041300 25006KT P6SM FEW090 SCT200
     FM041800 36006KT P6SM SCT090 SCT120
     FM042100 02008KT P6SM VCTS SCT090CB BKN140
      TEMPO 0421/0424 VRB20G32KT
     FM050200 14007KT P6SM SCT090 BKN140
     FM050500 21010KT P6SM FEW140 SCT200=



000
FTUS45 KBOU 040540
TAFAPA
TAF
KAPA 040540Z 0406/0506 20007KT P6SM FEW120 SCT200
     FM041300 24006KT P6SM FEW090 SCT200
     FM041800 36006KT P6SM SCT090 SCT120
     FM042000 02008KT P6SM VCTS SCT090CB BKN140
      TEMPO 0420/0423 VRB20G32KT
     FM050200 14008KT P6SM SCT090 BKN140
     FM050400 19007KT P6SM FEW140 SCT200=



000
FTUS45 KBOU 040540
TAFDEN
TAF
KDEN 040540Z 0406/0512 20010KT P6SM FEW120 SCT200
     FM041300 25006KT P6SM FEW090 SCT200
     FM041800 36006KT P6SM SCT090 SCT120
     FM042100 02008KT P6SM VCTS SCT090CB BKN140
      TEMPO 0421/0424 VRB20G32KT
     FM050200 14007KT P6SM SCT090 BKN140
     FM050500 21010KT P6SM FEW140 SCT200=



000
FTUS45 KBOU 040540
TAFBJC
TAF
KBJC 040540Z 0406/0506 20007KT P6SM FEW120 SCT200
     FM041300 24006KT P6SM FEW090 SCT200
     FM041800 36006KT P6SM SCT090 SCT120
     FM042000 02008KT P6SM VCTS SCT090CB BKN140
      TEMPO 0420/0423 VRB20G32KT
     FM050200 29005KT P6SM SCT090 BKN140
     FM050400 29007KT P6SM FEW140 SCT200=



000
FTUS45 KBOU 040540
TAFDEN
TAF
KDEN 040540Z 0406/0512 20010KT P6SM FEW120 SCT200
     FM041300 25006KT P6SM FEW090 SCT200
     FM041800 36006KT P6SM SCT090 SCT120
     FM042100 02008KT P6SM VCTS SCT090CB BKN140
      TEMPO 0421/0424 VRB20G32KT
     FM050200 14007KT P6SM SCT090 BKN140
     FM050500 21010KT P6SM FEW140 SCT200=



000
FTUS45 KBOU 040540
TAFAPA
TAF
KAPA 040540Z 0406/0506 20007KT P6SM FEW120 SCT200
     FM041300 24006KT P6SM FEW090 SCT200
     FM041800 36006KT P6SM SCT090 SCT120
     FM042000 02008KT P6SM VCTS SCT090CB BKN140
      TEMPO 0420/0423 VRB20G32KT
     FM050200 14008KT P6SM SCT090 BKN140
     FM050400 19007KT P6SM FEW140 SCT200=



000
FTUS45 KBOU 040540
TAFBJC
TAF
KBJC 040540Z 0406/0506 20007KT P6SM FEW120 SCT200
     FM041300 24006KT P6SM FEW090 SCT200
     FM041800 36006KT P6SM SCT090 SCT120
     FM042000 02008KT P6SM VCTS SCT090CB BKN140
      TEMPO 0420/0423 VRB20G32KT
     FM050200 29005KT P6SM SCT090 BKN140
     FM050400 29007KT P6SM FEW140 SCT200=



000
FTUS45 KBOU 040444 AAC
TAFAPA
TAF AMD
KAPA 040444Z 0405/0424 19008KT P6SM VCTS SCT080CB BKN140
     FM040515 20006KT P6SM FEW120 SCT200
     FM041500 24006KT P6SM FEW090 FEW200
     FM042000 01006KT P6SM SCT080 SCT120
     FM042200 01006KT P6SM VCTS SCT080CB BKN120=



000
FTUS45 KBOU 040444 AAC
TAFAPA
TAF AMD
KAPA 040444Z 0405/0424 19008KT P6SM VCTS SCT080CB BKN140
     FM040515 20006KT P6SM FEW120 SCT200
     FM041500 24006KT P6SM FEW090 FEW200
     FM042000 01006KT P6SM SCT080 SCT120
     FM042200 01006KT P6SM VCTS SCT080CB BKN120=



000
FTUS45 KBOU 040405 AAB
TAFDEN
TAF AMD
KDEN 040405Z 0404/0506 18012KT P6SM SCT060 SCT120 BKN220
     FM040600 21009KT P6SM FEW120 SCT200
     FM041500 24006KT P6SM FEW090 FEW200
     FM042000 36005KT P6SM SCT080 SCT120
     FM042300 02008KT P6SM VCTS SCT080CB SCT120
     FM050200 05007KT P6SM SCT080 BKN120=



000
FTUS45 KBOU 040325 AAB
TAFAPA
TAF AMD
KAPA 040325Z 0403/0424 19012KT P6SM VCTS SCT060CB BKN140
      TEMPO 0403/0405 32015G25KT -TSRA BKN060CB
     FM040600 19006KT P6SM FEW120 SCT200
     FM041500 24006KT P6SM FEW090 FEW200
     FM042000 01006KT P6SM SCT080 SCT120
     FM042200 01006KT P6SM VCTS SCT080CB BKN120=



000
FTUS45 KBOU 040325 AAB
TAFAPA
TAF AMD
KAPA 040325Z 0403/0424 19012KT P6SM VCTS SCT060CB BKN140
      TEMPO 0403/0405 32015G25KT -TSRA BKN060CB
     FM040600 19006KT P6SM FEW120 SCT200
     FM041500 24006KT P6SM FEW090 FEW200
     FM042000 01006KT P6SM SCT080 SCT120
     FM042200 01006KT P6SM VCTS SCT080CB BKN120=



000
FTUS45 KBOU 040325 AAB
TAFAPA
TAF AMD
KAPA 040325Z 0403/0424 19012KT P6SM VCTS SCT060CB BKN140
      TEMPO 0403/0405 32015G25KT -TSRA BKN060CB
     FM040600 19006KT P6SM FEW120 SCT200
     FM041500 24006KT P6SM FEW090 FEW200
     FM042000 01006KT P6SM SCT080 SCT120
     FM042200 01006KT P6SM VCTS SCT080CB BKN120=



000
FTUS45 KBOU 040212 AAA
TAFBJC
TAF AMD
KBJC 040212Z 0402/0424 VRB05KT P6SM SCT060 SCT140 SCT220
     FM040600 30005KT P6SM FEW120 SCT200
     FM041500 24006KT P6SM FEW090 SCT200
     FM042000 02006KT P6SM SCT080 SCT120
     FM042200 02006KT P6SM VCTS SCT080CB BKN120=



000
FTUS45 KBOU 040212 AAA
TAFBJC
TAF AMD
KBJC 040212Z 0402/0424 VRB05KT P6SM SCT060 SCT140 SCT220
     FM040600 30005KT P6SM FEW120 SCT200
     FM041500 24006KT P6SM FEW090 SCT200
     FM042000 02006KT P6SM SCT080 SCT120
     FM042200 02006KT P6SM VCTS SCT080CB BKN120=



000
FTUS45 KBOU 040212 AAA
TAFAPA
TAF AMD
KAPA 040212Z 0402/0424 15006KT P6SM SCT060 SCT140
     FM040600 19006KT P6SM FEW120 SCT200
     FM041500 24006KT P6SM FEW090 FEW200
     FM042000 01006KT P6SM SCT080 SCT120
     FM042200 01006KT P6SM VCTS SCT080CB BKN120=



000
FTUS45 KBOU 040212 AAA
TAFAPA
TAF AMD
KAPA 040212Z 0402/0424 15006KT P6SM SCT060 SCT140
     FM040600 19006KT P6SM FEW120 SCT200
     FM041500 24006KT P6SM FEW090 FEW200
     FM042000 01006KT P6SM SCT080 SCT120
     FM042200 01006KT P6SM VCTS SCT080CB BKN120=



000
FTUS45 KBOU 040212 AAA
TAFBJC
TAF AMD
KBJC 040212Z 0402/0424 VRB05KT P6SM SCT060 SCT140 SCT220
     FM040600 30005KT P6SM FEW120 SCT200
     FM041500 24006KT P6SM FEW090 SCT200
     FM042000 02006KT P6SM SCT080 SCT120
     FM042200 02006KT P6SM VCTS SCT080CB BKN120=



000
FTUS45 KBOU 040211 AAA
TAFDEN
TAF AMD
KDEN 040211Z 0402/0506 14009KT P6SM SCT060 BKN140
     FM040600 21009KT P6SM FEW120 SCT200
     FM041500 24006KT P6SM FEW090 FEW200
     FM042000 36005KT P6SM SCT080 SCT120
     FM042300 02008KT P6SM VCTS SCT080CB SCT120
     FM050200 05007KT P6SM SCT080 BKN120=



000
FTUS45 KBOU 040211 AAA
TAFDEN
TAF AMD
KDEN 040211Z 0402/0506 14009KT P6SM SCT060 BKN140
     FM040600 21009KT P6SM FEW120 SCT200
     FM041500 24006KT P6SM FEW090 FEW200
     FM042000 36005KT P6SM SCT080 SCT120
     FM042300 02008KT P6SM VCTS SCT080CB SCT120
     FM050200 05007KT P6SM SCT080 BKN120=



000
FTUS45 KBOU 032320
TAFAPA
TAF
KAPA 032320Z 0400/0424 VRB05KT P6SM SCT060 SCT140 SCT220
     FM040200 09007KT P6SM VCTS SCT060CB BKN140
     FM040400 14007KT P6SM FEW070 SCT140
     FM040600 19006KT P6SM FEW120 SCT200
     FM041500 24006KT P6SM FEW090 FEW200
     FM042000 01006KT P6SM SCT080 SCT120
     FM042200 01006KT P6SM VCTS SCT080CB BKN120=



000
FTUS45 KBOU 032320
TAFBJC
TAF
KBJC 032320Z 0400/0424 VRB05KT P6SM SCT060 SCT140 SCT220
     FM040200 03007KT P6SM VCTS SCT060CB BKN140
     FM040400 29007KT P6SM FEW070 SCT140
     FM040600 30005KT P6SM FEW120 SCT200
     FM041500 24006KT P6SM FEW090 SCT200
     FM042000 02006KT P6SM SCT080 SCT120
     FM042200 02006KT P6SM VCTS SCT080CB BKN120=



000
FTUS45 KBOU 032320
TAFDEN
TAF
KDEN 032320Z 0400/0506 10009KT P6SM SCT060 SCT140 SCT220
     FM040200 14010KT P6SM VCTS SCT060CB BKN140
     FM040400 15007KT P6SM FEW070 SCT140
     FM040600 21009KT P6SM FEW120 SCT200
     FM041500 24006KT P6SM FEW090 FEW200
     FM042000 36005KT P6SM SCT080 SCT120
     FM042300 02008KT P6SM VCTS SCT080CB SCT120
     FM050200 05007KT P6SM SCT080 BKN120=



000
FTUS45 KBOU 032320
TAFAPA
TAF
KAPA 032320Z 0400/0424 VRB05KT P6SM SCT060 SCT140 SCT220
     FM040200 09007KT P6SM VCTS SCT060CB BKN140
     FM040400 14007KT P6SM FEW070 SCT140
     FM040600 19006KT P6SM FEW120 SCT200
     FM041500 24006KT P6SM FEW090 FEW200
     FM042000 01006KT P6SM SCT080 SCT120
     FM042200 01006KT P6SM VCTS SCT080CB BKN120=



000
FTUS45 KBOU 032320
TAFBJC
TAF
KBJC 032320Z 0400/0424 VRB05KT P6SM SCT060 SCT140 SCT220
     FM040200 03007KT P6SM VCTS SCT060CB BKN140
     FM040400 29007KT P6SM FEW070 SCT140
     FM040600 30005KT P6SM FEW120 SCT200
     FM041500 24006KT P6SM FEW090 SCT200
     FM042000 02006KT P6SM SCT080 SCT120
     FM042200 02006KT P6SM VCTS SCT080CB BKN120=



000
FTUS45 KBOU 032320
TAFDEN
TAF
KDEN 032320Z 0400/0506 10009KT P6SM SCT060 SCT140 SCT220
     FM040200 14010KT P6SM VCTS SCT060CB BKN140
     FM040400 15007KT P6SM FEW070 SCT140
     FM040600 21009KT P6SM FEW120 SCT200
     FM041500 24006KT P6SM FEW090 FEW200
     FM042000 36005KT P6SM SCT080 SCT120
     FM042300 02008KT P6SM VCTS SCT080CB SCT120
     FM050200 05007KT P6SM SCT080 BKN120=



000
FTUS45 KBOU 032102 AAA
TAFAPA
TAF AMD
KAPA 032102Z 0321/0418 09008KT P6SM SCT060 SCT120
      TEMPO 0323/0402 VRB20G32KT -TSRA BKN060CB
     FM040300 14008KT P6SM FEW080 SCT120
     FM040600 19006KT P6SM FEW120 SCT200
     FM041500 24006KT P6SM FEW090 SCT200=



000
FTUS45 KBOU 032102 AAA
TAFAPA
TAF AMD
KAPA 032102Z 0321/0418 09008KT P6SM SCT060 SCT120
      TEMPO 0323/0402 VRB20G32KT -TSRA BKN060CB
     FM040300 14008KT P6SM FEW080 SCT120
     FM040600 19006KT P6SM FEW120 SCT200
     FM041500 24006KT P6SM FEW090 SCT200=



000
FTUS45 KBOU 032101 AAA
TAFDEN
TAF AMD
KDEN 032101Z 0321/0424 10009KT P6SM SCT060 SCT140
      TEMPO 0323/0402 VRB20G32KT -TSRA BKN060CB
     FM040300 14007KT P6SM FEW080 SCT120
     FM040600 21009KT P6SM FEW120 SCT200
     FM041500 24006KT P6SM FEW090 SCT200
     FM042100 36005KT P6SM SCT080 SCT120=



000
FTUS45 KBOU 032101 AAA
TAFDEN
TAF AMD
KDEN 032101Z 0321/0424 10009KT P6SM SCT060 SCT140
      TEMPO 0323/0402 VRB20G32KT -TSRA BKN060CB
     FM040300 14007KT P6SM FEW080 SCT120
     FM040600 21009KT P6SM FEW120 SCT200
     FM041500 24006KT P6SM FEW090 SCT200
     FM042100 36005KT P6SM SCT080 SCT120=



000
FTUS45 KBOU 031733
TAFAPA
TAF
KAPA 031733Z 0318/0418 12008KT P6SM SCT080 SCT120
     FM032000 09008KT P6SM SCT080 BKN140
      TEMPO 0322/0402 VRB20G32KT -TSRA BKN060CB
     FM040300 14008KT P6SM FEW080 SCT120
     FM040600 19006KT P6SM FEW120 SCT200
     FM041500 24006KT P6SM FEW090 SCT200=



000
FTUS45 KBOU 031733
TAFBJC
TAF
KBJC 031733Z 0318/0418 03005KT P6SM FEW060 SCT120 SCT200
     FM032200 07008KT P6SM SCT080 BKN140
      TEMPO 0323/0402 VRB20G32KT -TSRA BKN060CB
     FM040300 29007KT P6SM FEW080 SCT120
     FM040600 30005KT P6SM FEW120 SCT200
     FM041500 24006KT P6SM FEW090 SCT200=



000
FTUS45 KBOU 031733
TAFDEN
TAF
KDEN 031733Z 0318/0424 10008KT P6SM FEW050
     FM032100 07010KT P6SM SCT080 BKN140
      TEMPO 0323/0402 VRB20G32KT -TSRA BKN060CB
     FM040300 14007KT P6SM FEW080 SCT120
     FM040600 21009KT P6SM FEW120 SCT200
     FM041500 24006KT P6SM FEW090 SCT200
     FM042100 36005KT P6SM SCT080 SCT120=



000
FTUS45 KBOU 031733
TAFAPA
TAF
KAPA 031733Z 0318/0418 12008KT P6SM SCT080 SCT120
     FM032000 09008KT P6SM SCT080 BKN140
      TEMPO 0322/0402 VRB20G32KT -TSRA BKN060CB
     FM040300 14008KT P6SM FEW080 SCT120
     FM040600 19006KT P6SM FEW120 SCT200
     FM041500 24006KT P6SM FEW090 SCT200=



000
FTUS45 KBOU 031733
TAFBJC
TAF
KBJC 031733Z 0318/0418 03005KT P6SM FEW060 SCT120 SCT200
     FM032200 07008KT P6SM SCT080 BKN140
      TEMPO 0323/0402 VRB20G32KT -TSRA BKN060CB
     FM040300 29007KT P6SM FEW080 SCT120
     FM040600 30005KT P6SM FEW120 SCT200
     FM041500 24006KT P6SM FEW090 SCT200=



000
FTUS45 KBOU 031733
TAFDEN
TAF
KDEN 031733Z 0318/0424 10008KT P6SM FEW050
     FM032100 07010KT P6SM SCT080 BKN140
      TEMPO 0323/0402 VRB20G32KT -TSRA BKN060CB
     FM040300 14007KT P6SM FEW080 SCT120
     FM040600 21009KT P6SM FEW120 SCT200
     FM041500 24006KT P6SM FEW090 SCT200
     FM042100 36005KT P6SM SCT080 SCT120=



000
FTUS45 KBOU 031733
TAFAPA
TAF
KAPA 031733Z 0318/0418 12008KT P6SM SCT080 SCT120
     FM032000 09008KT P6SM SCT080 BKN140
      TEMPO 0322/0402 VRB20G32KT -TSRA BKN060CB
     FM040300 14008KT P6SM FEW080 SCT120
     FM040600 19006KT P6SM FEW120 SCT200
     FM041500 24006KT P6SM FEW090 SCT200=



000
FTUS45 KBOU 031733
TAFDEN
TAF
KDEN 031733Z 0318/0424 10008KT P6SM FEW050
     FM032100 07010KT P6SM SCT080 BKN140
      TEMPO 0323/0402 VRB20G32KT -TSRA BKN060CB
     FM040300 14007KT P6SM FEW080 SCT120
     FM040600 21009KT P6SM FEW120 SCT200
     FM041500 24006KT P6SM FEW090 SCT200
     FM042100 36005KT P6SM SCT080 SCT120=



000
FTUS45 KBOU 031733
TAFBJC
TAF
KBJC 031733Z 0318/0418 03005KT P6SM FEW060 SCT120 SCT200
     FM032200 07008KT P6SM SCT080 BKN140
      TEMPO 0323/0402 VRB20G32KT -TSRA BKN060CB
     FM040300 29007KT P6SM FEW080 SCT120
     FM040600 30005KT P6SM FEW120 SCT200
     FM041500 24006KT P6SM FEW090 SCT200=



000
FTUS45 KBOU 031543 AAC
TAFBJC
TAF AMD
KBJC 031543Z 0316/0412 33006KT P6SM SCT004
     FM031630 36007KT P6SM FEW080 SCT120 SCT200
     FM032200 07008KT P6SM SCT080 BKN140
      TEMPO 0323/0402 VRB20G32KT -TSRA BKN060CB
     FM040300 29007KT P6SM FEW080 SCT120
     FM040600 30005KT P6SM FEW120 SCT200=



000
FTUS45 KBOU 031543 AAC
TAFBJC
TAF AMD
KBJC 031543Z 0316/0412 33006KT P6SM SCT004
     FM031630 36007KT P6SM FEW080 SCT120 SCT200
     FM032200 07008KT P6SM SCT080 BKN140
      TEMPO 0323/0402 VRB20G32KT -TSRA BKN060CB
     FM040300 29007KT P6SM FEW080 SCT120
     FM040600 30005KT P6SM FEW120 SCT200=



000
FTUS45 KBOU 031543 AAC
TAFBJC
TAF AMD
KBJC 031543Z 0316/0412 33006KT P6SM SCT004
     FM031630 36007KT P6SM FEW080 SCT120 SCT200
     FM032200 07008KT P6SM SCT080 BKN140
      TEMPO 0323/0402 VRB20G32KT -TSRA BKN060CB
     FM040300 29007KT P6SM FEW080 SCT120
     FM040600 30005KT P6SM FEW120 SCT200=



000
FTUS45 KBOU 031543 AAC
TAFBJC
TAF AMD
KBJC 031543Z 0316/0412 33006KT P6SM SCT004
     FM031630 36007KT P6SM FEW080 SCT120 SCT200
     FM032200 07008KT P6SM SCT080 BKN140
      TEMPO 0323/0402 VRB20G32KT -TSRA BKN060CB
     FM040300 29007KT P6SM FEW080 SCT120
     FM040600 30005KT P6SM FEW120 SCT200=



000
FTUS45 KBOU 031503 AAB
TAFBJC
TAF AMD
KBJC 031503Z 0315/0412 33006KT 3SM BR BKN004
     FM031600 36007KT P6SM FEW080 SCT120 SCT200
     FM032200 07008KT P6SM SCT080 BKN140
      TEMPO 0323/0402 VRB20G32KT -TSRA BKN060CB
     FM040300 29007KT P6SM FEW080 SCT120
     FM040600 30005KT P6SM FEW120 SCT200=



000
FTUS45 KBOU 031503 AAB
TAFBJC
TAF AMD
KBJC 031503Z 0315/0412 33006KT 3SM BR BKN004
     FM031600 36007KT P6SM FEW080 SCT120 SCT200
     FM032200 07008KT P6SM SCT080 BKN140
      TEMPO 0323/0402 VRB20G32KT -TSRA BKN060CB
     FM040300 29007KT P6SM FEW080 SCT120
     FM040600 30005KT P6SM FEW120 SCT200=



000
FTUS45 KBOU 031500 AAA
TAFDEN
TAF AMD
KDEN 031500Z 0315/0418 13006KT P6SM FEW070 FEW120 SCT200
     FM031800 10008KT P6SM SCT080 SCT120
     FM032100 09010KT P6SM SCT080 BKN140
      TEMPO 0323/0402 VRB20G32KT -TSRA BKN060CB
     FM040300 14007KT P6SM FEW080 SCT120
     FM040600 21009KT P6SM FEW120 SCT200
     FM041500 24006KT P6SM FEW090 SCT200=



000
FTUS45 KBOU 031500 AAA
TAFDEN
TAF AMD
KDEN 031500Z 0315/0418 13006KT P6SM FEW070 FEW120 SCT200
     FM031800 10008KT P6SM SCT080 SCT120
     FM032100 09010KT P6SM SCT080 BKN140
      TEMPO 0323/0402 VRB20G32KT -TSRA BKN060CB
     FM040300 14007KT P6SM FEW080 SCT120
     FM040600 21009KT P6SM FEW120 SCT200
     FM041500 24006KT P6SM FEW090 SCT200=



000
FTUS45 KBOU 031500 AAA
TAFDEN
TAF AMD
KDEN 031500Z 0315/0418 13006KT P6SM FEW070 FEW120 SCT200
     FM031800 10008KT P6SM SCT080 SCT120
     FM032100 09010KT P6SM SCT080 BKN140
      TEMPO 0323/0402 VRB20G32KT -TSRA BKN060CB
     FM040300 14007KT P6SM FEW080 SCT120
     FM040600 21009KT P6SM FEW120 SCT200
     FM041500 24006KT P6SM FEW090 SCT200=



000
FTUS45 KBOU 031315 AAA
TAFBJC
TAF AMD
KBJC 031315Z 0313/0412 33006KT 1 1/2SM BR OVC003
      TEMPO 0313/0314 1/2SM FG OVC002
     FM031500 36007KT P6SM FEW080 SCT120 SCT200
     FM032200 07008KT P6SM SCT080 BKN140
      TEMPO 0323/0402 VRB20G32KT -TSRA BKN060CB
     FM040300 29007KT P6SM FEW080 SCT120
     FM040600 30005KT P6SM FEW120 SCT200=



000
FTUS45 KBOU 031315 AAA
TAFBJC
TAF AMD
KBJC 031315Z 0313/0412 33006KT 1 1/2SM BR OVC003
      TEMPO 0313/0314 1/2SM FG OVC002
     FM031500 36007KT P6SM FEW080 SCT120 SCT200
     FM032200 07008KT P6SM SCT080 BKN140
      TEMPO 0323/0402 VRB20G32KT -TSRA BKN060CB
     FM040300 29007KT P6SM FEW080 SCT120
     FM040600 30005KT P6SM FEW120 SCT200=



000
FTUS45 KBOU 031315 AAA
TAFBJC
TAF AMD
KBJC 031315Z 0313/0412 33006KT 1 1/2SM BR OVC003
      TEMPO 0313/0314 1/2SM FG OVC002
     FM031500 36007KT P6SM FEW080 SCT120 SCT200
     FM032200 07008KT P6SM SCT080 BKN140
      TEMPO 0323/0402 VRB20G32KT -TSRA BKN060CB
     FM040300 29007KT P6SM FEW080 SCT120
     FM040600 30005KT P6SM FEW120 SCT200=



000
FTUS45 KBOU 031129
TAFAPA
TAF
KAPA 031129Z 0312/0412 14006KT P6SM SCT120 SCT200
     FM031400 VRB05KT P6SM FEW080 SCT120 SCT200
     FM031700 12008KT P6SM SCT080 SCT120
     FM032000 09008KT P6SM SCT080 BKN140
      TEMPO 0322/0402 VRB20G32KT -TSRA BKN060CB
     FM040300 14008KT P6SM FEW080 SCT120
     FM040600 19006KT P6SM FEW120 SCT200=



000
FTUS45 KBOU 031129
TAFAPA
TAF
KAPA 031129Z 0312/0412 14006KT P6SM SCT120 SCT200
     FM031400 VRB05KT P6SM FEW080 SCT120 SCT200
     FM031700 12008KT P6SM SCT080 SCT120
     FM032000 09008KT P6SM SCT080 BKN140
      TEMPO 0322/0402 VRB20G32KT -TSRA BKN060CB
     FM040300 14008KT P6SM FEW080 SCT120
     FM040600 19006KT P6SM FEW120 SCT200=



000
FTUS45 KBOU 031129
TAFDEN
TAF
KDEN 031129Z 0312/0418 15006KT P6SM FEW120 SCT200
     FM031500 VRB05KT P6SM FEW080 SCT120 SCT200
     FM031800 10008KT P6SM SCT080 SCT120
     FM032100 09010KT P6SM SCT080 BKN140
      TEMPO 0323/0402 VRB20G32KT -TSRA BKN060CB
     FM040300 14007KT P6SM FEW080 SCT120
     FM040600 21009KT P6SM FEW120 SCT200
     FM041500 24006KT P6SM FEW090 SCT200=



000
FTUS45 KBOU 031129
TAFBJC
TAF
KBJC 031129Z 0312/0412 33006KT P6SM FEW120 SCT200
     FM031600 36007KT P6SM FEW080 SCT120 SCT200
     FM032200 07008KT P6SM SCT080 BKN140
      TEMPO 0323/0402 VRB20G32KT -TSRA BKN060CB
     FM040300 29007KT P6SM FEW080 SCT120
     FM040600 30005KT P6SM FEW120 SCT200=



000
FTUS45 KBOU 031129
TAFDEN
TAF
KDEN 031129Z 0312/0418 15006KT P6SM FEW120 SCT200
     FM031500 VRB05KT P6SM FEW080 SCT120 SCT200
     FM031800 10008KT P6SM SCT080 SCT120
     FM032100 09010KT P6SM SCT080 BKN140
      TEMPO 0323/0402 VRB20G32KT -TSRA BKN060CB
     FM040300 14007KT P6SM FEW080 SCT120
     FM040600 21009KT P6SM FEW120 SCT200
     FM041500 24006KT P6SM FEW090 SCT200=



000
FTUS45 KBOU 031129
TAFAPA
TAF
KAPA 031129Z 0312/0412 14006KT P6SM SCT120 SCT200
     FM031400 VRB05KT P6SM FEW080 SCT120 SCT200
     FM031700 12008KT P6SM SCT080 SCT120
     FM032000 09008KT P6SM SCT080 BKN140
      TEMPO 0322/0402 VRB20G32KT -TSRA BKN060CB
     FM040300 14008KT P6SM FEW080 SCT120
     FM040600 19006KT P6SM FEW120 SCT200=



000
FTUS45 KBOU 031129
TAFBJC
TAF
KBJC 031129Z 0312/0412 33006KT P6SM FEW120 SCT200
     FM031600 36007KT P6SM FEW080 SCT120 SCT200
     FM032200 07008KT P6SM SCT080 BKN140
      TEMPO 0323/0402 VRB20G32KT -TSRA BKN060CB
     FM040300 29007KT P6SM FEW080 SCT120
     FM040600 30005KT P6SM FEW120 SCT200=



000
FTUS45 KBOU 031129
TAFBJC
TAF
KBJC 031129Z 0312/0412 33006KT P6SM FEW120 SCT200
     FM031600 36007KT P6SM FEW080 SCT120 SCT200
     FM032200 07008KT P6SM SCT080 BKN140
      TEMPO 0323/0402 VRB20G32KT -TSRA BKN060CB
     FM040300 29007KT P6SM FEW080 SCT120
     FM040600 30005KT P6SM FEW120 SCT200=



000
FTUS45 KBOU 031129
TAFAPA
TAF
KAPA 031129Z 0312/0412 14006KT P6SM SCT120 SCT200
     FM031400 VRB05KT P6SM FEW080 SCT120 SCT200
     FM031700 12008KT P6SM SCT080 SCT120
     FM032000 09008KT P6SM SCT080 BKN140
      TEMPO 0322/0402 VRB20G32KT -TSRA BKN060CB
     FM040300 14008KT P6SM FEW080 SCT120
     FM040600 19006KT P6SM FEW120 SCT200=



000
FTUS45 KBOU 031129
TAFDEN
TAF
KDEN 031129Z 0312/0418 15006KT P6SM FEW120 SCT200
     FM031500 VRB05KT P6SM FEW080 SCT120 SCT200
     FM031800 10008KT P6SM SCT080 SCT120
     FM032100 09010KT P6SM SCT080 BKN140
      TEMPO 0323/0402 VRB20G32KT -TSRA BKN060CB
     FM040300 14007KT P6SM FEW080 SCT120
     FM040600 21009KT P6SM FEW120 SCT200
     FM041500 24006KT P6SM FEW090 SCT200=



000
FTUS45 KBOU 031129
TAFBJC
TAF
KBJC 031129Z 0312/0412 33006KT P6SM FEW120 SCT200
     FM031600 36007KT P6SM FEW080 SCT120 SCT200
     FM032200 07008KT P6SM SCT080 BKN140
      TEMPO 0323/0402 VRB20G32KT -TSRA BKN060CB
     FM040300 29007KT P6SM FEW080 SCT120
     FM040600 30005KT P6SM FEW120 SCT200=



000
FTUS45 KBOU 031129
TAFDEN
TAF
KDEN 031129Z 0312/0418 15006KT P6SM FEW120 SCT200
     FM031500 VRB05KT P6SM FEW080 SCT120 SCT200
     FM031800 10008KT P6SM SCT080 SCT120
     FM032100 09010KT P6SM SCT080 BKN140
      TEMPO 0323/0402 VRB20G32KT -TSRA BKN060CB
     FM040300 14007KT P6SM FEW080 SCT120
     FM040600 21009KT P6SM FEW120 SCT200
     FM041500 24006KT P6SM FEW090 SCT200=



000
FTUS45 KBOU 030900 AAA
TAFDEN
TAF AMD
KDEN 030900Z 0309/0412 18006KT P6SM SCT110 SCT200
     FM031100 23007KT P6SM SCT110 SCT200
     FM031400 VRB06KT P6SM FEW080 SCT120 BKN200
     FM032000 09008KT P6SM SCT080 BKN140 PROB30 0322/0402 VRB20G32KT
      -TSRA BKN080CB
     FM040300 14007KT P6SM FEW080 SCT120
     FM040600 21009KT P6SM FEW120 SCT200=



000
FTUS45 KBOU 030900 AAA
TAFDEN
TAF AMD
KDEN 030900Z 0309/0412 18006KT P6SM SCT110 SCT200
     FM031100 23007KT P6SM SCT110 SCT200
     FM031400 VRB06KT P6SM FEW080 SCT120 BKN200
     FM032000 09008KT P6SM SCT080 BKN140 PROB30 0322/0402 VRB20G32KT
      -TSRA BKN080CB
     FM040300 14007KT P6SM FEW080 SCT120
     FM040600 21009KT P6SM FEW120 SCT200=



000
FTUS45 KBOU 030539
TAFDEN
TAF
KDEN 030539Z 0306/0412 23009KT P6SM SCT110 BKN200
     FM031400 VRB06KT P6SM FEW080 SCT120 BKN200
     FM032000 09008KT P6SM SCT080 BKN140 PROB30 0322/0402 VRB20G32KT
      -TSRA BKN080CB
     FM040300 14007KT P6SM FEW080 SCT120
     FM040600 21009KT P6SM FEW120 SCT200=



000
FTUS45 KBOU 030539
TAFDEN
TAF
KDEN 030539Z 0306/0412 23009KT P6SM SCT110 BKN200
     FM031400 VRB06KT P6SM FEW080 SCT120 BKN200
     FM032000 09008KT P6SM SCT080 BKN140 PROB30 0322/0402 VRB20G32KT
      -TSRA BKN080CB
     FM040300 14007KT P6SM FEW080 SCT120
     FM040600 21009KT P6SM FEW120 SCT200=



000
FTUS45 KBOU 030539
TAFBJC
TAF
KBJC 030539Z 0306/0406 25005KT P6SM FEW120 SCT200
     FM031400 VRB06KT P6SM FEW080 SCT120 BKN200
     FM032200 09006KT P6SM SCT080 BKN140 PROB30 0322/0402 VRB20G32KT
      -TSRA BKN080CB
     FM040300 VRB05KT P6SM FEW080 SCT120=



000
FTUS45 KBOU 030539
TAFAPA
TAF
KAPA 030539Z 0306/0406 24006KT P6SM FEW120 SCT200
     FM031400 VRB06KT P6SM FEW080 SCT120 SCT200
     FM032000 09006KT P6SM SCT080 BKN140 PROB30 0322/0402 VRB20G32KT
      -TSRA BKN080CB
     FM040300 14007KT P6SM FEW080 SCT120=



000
FTUS45 KBOU 030539
TAFAPA
TAF
KAPA 030539Z 0306/0406 24006KT P6SM FEW120 SCT200
     FM031400 VRB06KT P6SM FEW080 SCT120 SCT200
     FM032000 09006KT P6SM SCT080 BKN140 PROB30 0322/0402 VRB20G32KT
      -TSRA BKN080CB
     FM040300 14007KT P6SM FEW080 SCT120=



000
FTUS45 KBOU 030539
TAFBJC
TAF
KBJC 030539Z 0306/0406 25005KT P6SM FEW120 SCT200
     FM031400 VRB06KT P6SM FEW080 SCT120 BKN200
     FM032200 09006KT P6SM SCT080 BKN140 PROB30 0322/0402 VRB20G32KT
      -TSRA BKN080CB
     FM040300 VRB05KT P6SM FEW080 SCT120=



000
FTUS45 KBOU 030342 AAE
TAFDEN
TAF AMD
KDEN 030342Z 0304/0406 15012KT P6SM VCSH FEW050 BKN110
     FM030600 22009KT P6SM SCT110 BKN200
     FM031400 VRB06KT P6SM FEW080 SCT120 BKN200
     FM032200 09006KT P6SM VCTS FEW080CB BKN140 PROB30 0322/0401
      VRB20G32KT -TSRA BKN080CB
     FM040300 14007KT P6SM FEW080 SCT120=



000
FTUS45 KBOU 030342 AAE
TAFDEN
TAF AMD
KDEN 030342Z 0304/0406 15012KT P6SM VCSH FEW050 BKN110
     FM030600 22009KT P6SM SCT110 BKN200
     FM031400 VRB06KT P6SM FEW080 SCT120 BKN200
     FM032200 09006KT P6SM VCTS FEW080CB BKN140 PROB30 0322/0401
      VRB20G32KT -TSRA BKN080CB
     FM040300 14007KT P6SM FEW080 SCT120=



000
FTUS45 KBOU 030342 AAE
TAFDEN
TAF AMD
KDEN 030342Z 0304/0406 15012KT P6SM VCSH FEW050 BKN110
     FM030600 22009KT P6SM SCT110 BKN200
     FM031400 VRB06KT P6SM FEW080 SCT120 BKN200
     FM032200 09006KT P6SM VCTS FEW080CB BKN140 PROB30 0322/0401
      VRB20G32KT -TSRA BKN080CB
     FM040300 14007KT P6SM FEW080 SCT120=



000
FTUS45 KBOU 030222 AAD
TAFDEN
TAF AMD
KDEN 030222Z 0302/0406 10015KT P6SM VCTS BKN070CB
     FM030400 15008KT P6SM VCTS SCT080CB BKN140
     FM030600 22009KT P6SM SCT120 BKN200
     FM031400 VRB06KT P6SM FEW080 SCT120 BKN200
     FM032200 09006KT P6SM VCTS FEW080CB BKN140 PROB30 0322/0401
      VRB20G32KT -TSRA BKN080CB
     FM040300 14007KT P6SM FEW080 SCT120=



000
FTUS45 KBOU 030222 AAD
TAFDEN
TAF AMD
KDEN 030222Z 0302/0406 10015KT P6SM VCTS BKN070CB
     FM030400 15008KT P6SM VCTS SCT080CB BKN140
     FM030600 22009KT P6SM SCT120 BKN200
     FM031400 VRB06KT P6SM FEW080 SCT120 BKN200
     FM032200 09006KT P6SM VCTS FEW080CB BKN140 PROB30 0322/0401
      VRB20G32KT -TSRA BKN080CB
     FM040300 14007KT P6SM FEW080 SCT120=



000
FTUS45 KBOU 030151 AAA
TAFAPA
TAF AMD
KAPA 030151Z 0302/0324 VRB20G35KT 5SM -TSRA SCT070CB
     FM030300 14008KT P6SM SCT080 BKN140
     FM030600 20008KT P6SM SCT120 BKN200
     FM031400 VRB06KT P6SM FEW080 SCT120 BKN200
     FM032200 09006KT P6SM VCTS FEW080CB BKN140 PROB30 0322/0324
      VRB20G32KT -TSRA BKN080CB=



000
FTUS45 KBOU 030151 AAA
TAFAPA
TAF AMD
KAPA 030151Z 0302/0324 VRB20G35KT 5SM -TSRA SCT070CB
     FM030300 14008KT P6SM SCT080 BKN140
     FM030600 20008KT P6SM SCT120 BKN200
     FM031400 VRB06KT P6SM FEW080 SCT120 BKN200
     FM032200 09006KT P6SM VCTS FEW080CB BKN140 PROB30 0322/0324
      VRB20G32KT -TSRA BKN080CB=



000
FTUS45 KBOU 030126 AAA
TAFBJC
TAF AMD
KBJC 030126Z 0301/0324 07010KT P6SM VCTS SCT070CB BKN120
      TEMPO 0301/0303 VRB15G24KT P6SM -TSRA BKN070CB
     FM030300 15008KT P6SM SCT080 BKN140
     FM030600 30006KT P6SM SCT120 BKN200
     FM031400 VRB06KT P6SM FEW080 SCT120 BKN200
     FM032200 09006KT P6SM VCTS FEW080CB BKN140 PROB30 0322/0324
      VRB20G32KT -TSRA BKN080CB=



000
FTUS45 KBOU 030126 AAA
TAFBJC
TAF AMD
KBJC 030126Z 0301/0324 07010KT P6SM VCTS SCT070CB BKN120
      TEMPO 0301/0303 VRB15G24KT P6SM -TSRA BKN070CB
     FM030300 15008KT P6SM SCT080 BKN140
     FM030600 30006KT P6SM SCT120 BKN200
     FM031400 VRB06KT P6SM FEW080 SCT120 BKN200
     FM032200 09006KT P6SM VCTS FEW080CB BKN140 PROB30 0322/0324
      VRB20G32KT -TSRA BKN080CB=



000
FTUS45 KBOU 030118 AAC
TAFDEN
TAF AMD
KDEN 030118Z 0301/0406 14007KT P6SM VCTS SCT070CB BKN120
     FM030130 VRB25G45KT 4SM -TSRA BKN025CB
     FM030300 15008KT P6SM SCT080 BKN140
     FM030600 22009KT P6SM SCT120 BKN200
     FM031400 VRB06KT P6SM FEW080 SCT120 BKN200
     FM032200 09006KT P6SM VCTS FEW080CB BKN140 PROB30 0322/0401
      VRB20G32KT -TSRA BKN080CB
     FM040300 14007KT P6SM FEW080 SCT120=



000
FTUS45 KBOU 030118 AAC
TAFDEN
TAF AMD
KDEN 030118Z 0301/0406 14007KT P6SM VCTS SCT070CB BKN120
     FM030130 VRB25G45KT 4SM -TSRA BKN025CB
     FM030300 15008KT P6SM SCT080 BKN140
     FM030600 22009KT P6SM SCT120 BKN200
     FM031400 VRB06KT P6SM FEW080 SCT120 BKN200
     FM032200 09006KT P6SM VCTS FEW080CB BKN140 PROB30 0322/0401
      VRB20G32KT -TSRA BKN080CB
     FM040300 14007KT P6SM FEW080 SCT120=



000
FTUS45 KBOU 030108 AAB
TAFDEN
TAF AMD
KDEN 030108Z 0301/0406 14007KT P6SM VCTS SCT070CB BKN120
     FM030145 VRB25G45KT 5SM -TSRA BKN030CB
     FM030300 15008KT P6SM SCT080 BKN140
     FM030600 22009KT P6SM SCT120 BKN200
     FM031400 VRB06KT P6SM FEW080 SCT120 BKN200
     FM032200 09006KT P6SM VCTS FEW080CB BKN140 PROB30 0322/0401
      VRB20G32KT -TSRA BKN080CB
     FM040300 14007KT P6SM FEW080 SCT120=



000
FTUS45 KBOU 030108 AAB
TAFDEN
TAF AMD
KDEN 030108Z 0301/0406 14007KT P6SM VCTS SCT070CB BKN120
     FM030145 VRB25G45KT 5SM -TSRA BKN030CB
     FM030300 15008KT P6SM SCT080 BKN140
     FM030600 22009KT P6SM SCT120 BKN200
     FM031400 VRB06KT P6SM FEW080 SCT120 BKN200
     FM032200 09006KT P6SM VCTS FEW080CB BKN140 PROB30 0322/0401
      VRB20G32KT -TSRA BKN080CB
     FM040300 14007KT P6SM FEW080 SCT120=



000
FTUS45 KBOU 030107 AAA
TAFDEN
TAF AMD
KDEN 030107Z 0301/0406 07012KT P6SM VCTS SCT070CB BKN120
     FM030145 VRB25G45KT 5SM -TSRA BKN030CB
     FM030300 15008KT P6SM SCT080 BKN140
     FM030600 22009KT P6SM SCT120 BKN200
     FM031400 VRB06KT P6SM FEW080 SCT120 BKN200
     FM032200 09006KT P6SM VCTS FEW080CB BKN140 PROB30 0322/0401
      VRB20G32KT -TSRA BKN080CB
     FM040300 14007KT P6SM FEW080 SCT120=



000
FTUS45 KBOU 030107 AAA
TAFDEN
TAF AMD
KDEN 030107Z 0301/0406 07012KT P6SM VCTS SCT070CB BKN120
     FM030145 VRB25G45KT 5SM -TSRA BKN030CB
     FM030300 15008KT P6SM SCT080 BKN140
     FM030600 22009KT P6SM SCT120 BKN200
     FM031400 VRB06KT P6SM FEW080 SCT120 BKN200
     FM032200 09006KT P6SM VCTS FEW080CB BKN140 PROB30 0322/0401
      VRB20G32KT -TSRA BKN080CB
     FM040300 14007KT P6SM FEW080 SCT120=



000
FTUS45 KBOU 022327
TAFDEN
TAF
KDEN 022327Z 0300/0406 07012KT P6SM VCTS SCT070CB BKN120
     FM030300 15008KT P6SM SCT080 BKN140
     FM030600 22009KT P6SM SCT120 BKN200
     FM031400 VRB06KT P6SM FEW080 SCT120 BKN200
     FM032200 09006KT P6SM VCTS FEW080CB BKN140 PROB30 0322/0401
      VRB20G32KT -TSRA BKN080CB
     FM040300 14007KT P6SM FEW080 SCT120=



000
FTUS45 KBOU 022327
TAFDEN
TAF
KDEN 022327Z 0300/0406 07012KT P6SM VCTS SCT070CB BKN120
     FM030300 15008KT P6SM SCT080 BKN140
     FM030600 22009KT P6SM SCT120 BKN200
     FM031400 VRB06KT P6SM FEW080 SCT120 BKN200
     FM032200 09006KT P6SM VCTS FEW080CB BKN140 PROB30 0322/0401
      VRB20G32KT -TSRA BKN080CB
     FM040300 14007KT P6SM FEW080 SCT120=



000
FTUS45 KBOU 022327
TAFAPA
TAF
KAPA 022327Z 0300/0324 07007KT P6SM VCTS SCT070CB BKN120
     FM030300 14008KT P6SM SCT080 BKN140
     FM030600 20008KT P6SM SCT120 BKN200
     FM031400 VRB06KT P6SM FEW080 SCT120 BKN200
     FM032200 09006KT P6SM VCTS FEW080CB BKN140 PROB30 0322/0324
      VRB20G32KT -TSRA BKN080CB=



000
FTUS45 KBOU 022327
TAFBJC
TAF
KBJC 022327Z 0300/0324 07010KT P6SM VCTS SCT070CB BKN120
     FM030300 15008KT P6SM SCT080 BKN140
     FM030600 30006KT P6SM SCT120 BKN200
     FM031400 VRB06KT P6SM FEW080 SCT120 BKN200
     FM032200 09006KT P6SM VCTS FEW080CB BKN140 PROB30 0322/0324
      VRB20G32KT -TSRA BKN080CB=



000
FTUS45 KBOU 022327
TAFDEN
TAF
KDEN 022327Z 0300/0406 07012KT P6SM VCTS SCT070CB BKN120
     FM030300 15008KT P6SM SCT080 BKN140
     FM030600 22009KT P6SM SCT120 BKN200
     FM031400 VRB06KT P6SM FEW080 SCT120 BKN200
     FM032200 09006KT P6SM VCTS FEW080CB BKN140 PROB30 0322/0401
      VRB20G32KT -TSRA BKN080CB
     FM040300 14007KT P6SM FEW080 SCT120=



000
FTUS45 KBOU 022327
TAFAPA
TAF
KAPA 022327Z 0300/0324 07007KT P6SM VCTS SCT070CB BKN120
     FM030300 14008KT P6SM SCT080 BKN140
     FM030600 20008KT P6SM SCT120 BKN200
     FM031400 VRB06KT P6SM FEW080 SCT120 BKN200
     FM032200 09006KT P6SM VCTS FEW080CB BKN140 PROB30 0322/0324
      VRB20G32KT -TSRA BKN080CB=



000
FTUS45 KBOU 022327
TAFAPA
TAF
KAPA 022327Z 0300/0324 07007KT P6SM VCTS SCT070CB BKN120
     FM030300 14008KT P6SM SCT080 BKN140
     FM030600 20008KT P6SM SCT120 BKN200
     FM031400 VRB06KT P6SM FEW080 SCT120 BKN200
     FM032200 09006KT P6SM VCTS FEW080CB BKN140 PROB30 0322/0324
      VRB20G32KT -TSRA BKN080CB=



000
FTUS45 KBOU 022327
TAFBJC
TAF
KBJC 022327Z 0300/0324 07010KT P6SM VCTS SCT070CB BKN120
     FM030300 15008KT P6SM SCT080 BKN140
     FM030600 30006KT P6SM SCT120 BKN200
     FM031400 VRB06KT P6SM FEW080 SCT120 BKN200
     FM032200 09006KT P6SM VCTS FEW080CB BKN140 PROB30 0322/0324
      VRB20G32KT -TSRA BKN080CB=



000
FTUS45 KBOU 022327
TAFDEN
TAF
KDEN 022327Z 0300/0406 07012KT P6SM VCTS SCT070CB BKN120
     FM030300 15008KT P6SM SCT080 BKN140
     FM030600 22009KT P6SM SCT120 BKN200
     FM031400 VRB06KT P6SM FEW080 SCT120 BKN200
     FM032200 09006KT P6SM VCTS FEW080CB BKN140 PROB30 0322/0401
      VRB20G32KT -TSRA BKN080CB
     FM040300 14007KT P6SM FEW080 SCT120=



000
FTUS45 KBOU 022327
TAFBJC
TAF
KBJC 022327Z 0300/0324 07010KT P6SM VCTS SCT070CB BKN120
     FM030300 15008KT P6SM SCT080 BKN140
     FM030600 30006KT P6SM SCT120 BKN200
     FM031400 VRB06KT P6SM FEW080 SCT120 BKN200
     FM032200 09006KT P6SM VCTS FEW080CB BKN140 PROB30 0322/0324
      VRB20G32KT -TSRA BKN080CB=



000
FTUS45 KBOU 022327
TAFAPA
TAF
KAPA 022327Z 0300/0324 07007KT P6SM VCTS SCT070CB BKN120
     FM030300 14008KT P6SM SCT080 BKN140
     FM030600 20008KT P6SM SCT120 BKN200
     FM031400 VRB06KT P6SM FEW080 SCT120 BKN200
     FM032200 09006KT P6SM VCTS FEW080CB BKN140 PROB30 0322/0324
      VRB20G32KT -TSRA BKN080CB=



000
FTUS45 KBOU 022054 AAA
TAFDEN
TAF AMD
KDEN 022054Z 0221/0324 11006KT P6SM SCT050 BKN140
     FM022300 07012KT P6SM SCT070 BKN120
      TEMPO 0223/0303 VRB20G32KT -TSRA BKN060CB
     FM030300 15008KT P6SM SCT080 BKN140
     FM030600 22009KT P6SM SCT120 BKN200
     FM031400 VRB06KT P6SM FEW080 SCT120 BKN200=



000
FTUS45 KBOU 021736
TAFDEN
TAF
KDEN 021736Z 0218/0324 23009KT P6SM FEW070 SCT220
     FM022000 06008KT P6SM SCT050 BKN140
     FM022300 07012KT P6SM SCT070 BKN120
      TEMPO 0223/0303 VRB20G32KT -TSRA BKN060CB
     FM030300 15008KT P6SM SCT080 BKN140
     FM030600 22009KT P6SM SCT120 BKN200
     FM031400 VRB06KT P6SM FEW080 SCT120 BKN200=



000
FTUS45 KBOU 021736
TAFBJC
TAF
KBJC 021736Z 0218/0318 19008KT P6SM FEW010 SCT220
     FM022000 05007KT P6SM SCT050 BKN140
     FM022200 07010KT P6SM SCT070 BKN120
      TEMPO 0222/0302 VRB20G32KT -TSRA BKN060CB
     FM030300 15008KT P6SM SCT080 BKN140
     FM030600 30006KT P6SM SCT120 BKN200
     FM031400 VRB06KT P6SM FEW080 SCT120 BKN200=



000
FTUS45 KBOU 021736
TAFDEN
TAF
KDEN 021736Z 0218/0324 23009KT P6SM FEW070 SCT220
     FM022000 06008KT P6SM SCT050 BKN140
     FM022300 07012KT P6SM SCT070 BKN120
      TEMPO 0223/0303 VRB20G32KT -TSRA BKN060CB
     FM030300 15008KT P6SM SCT080 BKN140
     FM030600 22009KT P6SM SCT120 BKN200
     FM031400 VRB06KT P6SM FEW080 SCT120 BKN200=



000
FTUS45 KBOU 021736
TAFAPA
TAF
KAPA 021736Z 0218/0318 23009KT P6SM FEW070 SCT220
     FM022000 05008KT P6SM SCT050 BKN140
     FM022300 07010KT P6SM SCT070 BKN120
      TEMPO 0223/0303 VRB20G32KT -TSRA BKN060CB
     FM030300 14008KT P6SM SCT080 BKN140
     FM030600 20008KT P6SM SCT120 BKN200
     FM031400 VRB06KT P6SM FEW080 SCT120 BKN200=



000
FTUS45 KBOU 021736
TAFAPA
TAF
KAPA 021736Z 0218/0318 23009KT P6SM FEW070 SCT220
     FM022000 05008KT P6SM SCT050 BKN140
     FM022300 07010KT P6SM SCT070 BKN120
      TEMPO 0223/0303 VRB20G32KT -TSRA BKN060CB
     FM030300 14008KT P6SM SCT080 BKN140
     FM030600 20008KT P6SM SCT120 BKN200
     FM031400 VRB06KT P6SM FEW080 SCT120 BKN200=



000
FTUS45 KBOU 021736
TAFBJC
TAF
KBJC 021736Z 0218/0318 19008KT P6SM FEW010 SCT220
     FM022000 05007KT P6SM SCT050 BKN140
     FM022200 07010KT P6SM SCT070 BKN120
      TEMPO 0222/0302 VRB20G32KT -TSRA BKN060CB
     FM030300 15008KT P6SM SCT080 BKN140
     FM030600 30006KT P6SM SCT120 BKN200
     FM031400 VRB06KT P6SM FEW080 SCT120 BKN200=



000
FTUS45 KBOU 021736
TAFBJC
TAF
KBJC 021736Z 0218/0318 19008KT P6SM FEW010 SCT220
     FM022000 05007KT P6SM SCT050 BKN140
     FM022200 07010KT P6SM SCT070 BKN120
      TEMPO 0222/0302 VRB20G32KT -TSRA BKN060CB
     FM030300 15008KT P6SM SCT080 BKN140
     FM030600 30006KT P6SM SCT120 BKN200
     FM031400 VRB06KT P6SM FEW080 SCT120 BKN200=



000
FTUS45 KBOU 021736
TAFDEN
TAF
KDEN 021736Z 0218/0324 23009KT P6SM FEW070 SCT220
     FM022000 06008KT P6SM SCT050 BKN140
     FM022300 07012KT P6SM SCT070 BKN120
      TEMPO 0223/0303 VRB20G32KT -TSRA BKN060CB
     FM030300 15008KT P6SM SCT080 BKN140
     FM030600 22009KT P6SM SCT120 BKN200
     FM031400 VRB06KT P6SM FEW080 SCT120 BKN200=



000
FTUS45 KBOU 021736
TAFAPA
TAF
KAPA 021736Z 0218/0318 23009KT P6SM FEW070 SCT220
     FM022000 05008KT P6SM SCT050 BKN140
     FM022300 07010KT P6SM SCT070 BKN120
      TEMPO 0223/0303 VRB20G32KT -TSRA BKN060CB
     FM030300 14008KT P6SM SCT080 BKN140
     FM030600 20008KT P6SM SCT120 BKN200
     FM031400 VRB06KT P6SM FEW080 SCT120 BKN200=



000
FTUS45 KBOU 021736
TAFAPA
TAF
KAPA 021736Z 0218/0318 23009KT P6SM FEW070 SCT220
     FM022000 05008KT P6SM SCT050 BKN140
     FM022300 07010KT P6SM SCT070 BKN120
      TEMPO 0223/0303 VRB20G32KT -TSRA BKN060CB
     FM030300 14008KT P6SM SCT080 BKN140
     FM030600 20008KT P6SM SCT120 BKN200
     FM031400 VRB06KT P6SM FEW080 SCT120 BKN200=



000
FTUS45 KBOU 021736
TAFBJC
TAF
KBJC 021736Z 0218/0318 19008KT P6SM FEW010 SCT220
     FM022000 05007KT P6SM SCT050 BKN140
     FM022200 07010KT P6SM SCT070 BKN120
      TEMPO 0222/0302 VRB20G32KT -TSRA BKN060CB
     FM030300 15008KT P6SM SCT080 BKN140
     FM030600 30006KT P6SM SCT120 BKN200
     FM031400 VRB06KT P6SM FEW080 SCT120 BKN200=



000
FTUS45 KBOU 021736
TAFDEN
TAF
KDEN 021736Z 0218/0324 23009KT P6SM FEW070 SCT220
     FM022000 06008KT P6SM SCT050 BKN140
     FM022300 07012KT P6SM SCT070 BKN120
      TEMPO 0223/0303 VRB20G32KT -TSRA BKN060CB
     FM030300 15008KT P6SM SCT080 BKN140
     FM030600 22009KT P6SM SCT120 BKN200
     FM031400 VRB06KT P6SM FEW080 SCT120 BKN200=



000
FTUS45 KBOU 021439 AAD
TAFDEN
TAF AMD
KDEN 021439Z 0215/0318 23008KT P6SM OVC030
     FM021600 05010KT P6SM FEW040 SCT100
     FM021800 06008KT P6SM SCT050 BKN140
     FM022000 07011KT P6SM SCT070 BKN120
      TEMPO 0222/0302 VRB20G32KT -TSRA BKN060CB
     FM030300 15008KT P6SM SCT080 BKN140
     FM030600 22009KT P6SM SCT120 BKN200
     FM031400 29006KT P6SM FEW080 SCT120 BKN200=



000
FTUS45 KBOU 021439 AAD
TAFDEN
TAF AMD
KDEN 021439Z 0215/0318 23008KT P6SM OVC030
     FM021600 05010KT P6SM FEW040 SCT100
     FM021800 06008KT P6SM SCT050 BKN140
     FM022000 07011KT P6SM SCT070 BKN120
      TEMPO 0222/0302 VRB20G32KT -TSRA BKN060CB
     FM030300 15008KT P6SM SCT080 BKN140
     FM030600 22009KT P6SM SCT120 BKN200
     FM031400 29006KT P6SM FEW080 SCT120 BKN200=



000
FTUS45 KBOU 021439 AAD
TAFDEN
TAF AMD
KDEN 021439Z 0215/0318 23008KT P6SM OVC030
     FM021600 05010KT P6SM FEW040 SCT100
     FM021800 06008KT P6SM SCT050 BKN140
     FM022000 07011KT P6SM SCT070 BKN120
      TEMPO 0222/0302 VRB20G32KT -TSRA BKN060CB
     FM030300 15008KT P6SM SCT080 BKN140
     FM030600 22009KT P6SM SCT120 BKN200
     FM031400 29006KT P6SM FEW080 SCT120 BKN200=



000
FTUS45 KBOU 021411 AAD
TAFAPA
TAF AMD
KAPA 021411Z 0214/0312 03007KT P6SM FEW010 BKN015 OVC020
     FM021600 02010KT P6SM SCT010 BKN020 BKN080
     FM021700 03010KT P6SM SCT025 SCT080 BKN140
     FM021800 05008KT P6SM SCT045 BKN140
     FM022000 06011KT P6SM SCT070 BKN120
      TEMPO 0222/0302 VRB20G32KT -TSRA BKN050CB
     FM030300 15008KT P6SM SCT080 BKN140
     FM030600 19007KT P6SM SCT120 BKN200=



000
FTUS45 KBOU 021411 AAD
TAFAPA
TAF AMD
KAPA 021411Z 0214/0312 03007KT P6SM FEW010 BKN015 OVC020
     FM021600 02010KT P6SM SCT010 BKN020 BKN080
     FM021700 03010KT P6SM SCT025 SCT080 BKN140
     FM021800 05008KT P6SM SCT045 BKN140
     FM022000 06011KT P6SM SCT070 BKN120
      TEMPO 0222/0302 VRB20G32KT -TSRA BKN050CB
     FM030300 15008KT P6SM SCT080 BKN140
     FM030600 19007KT P6SM SCT120 BKN200=



000
FTUS45 KBOU 021411 AAA
TAFBJC
TAF AMD
KBJC 021411Z 0214/0312 VRB04KT P6SM BKN010 OVC050
     FM021600 02010KT P6SM SCT020 BKN040
     FM021800 02008KT P6SM SCT060 BKN140
     FM022000 03011KT P6SM SCT060 BKN120
      TEMPO 0221/0301 VRB20G32KT -TSRA BKN050CB
     FM030300 15007KT P6SM SCT080 BKN140
     FM030600 25005KT P6SM SCT120 BKN200=



000
FTUS45 KBOU 021411 AAA
TAFBJC
TAF AMD
KBJC 021411Z 0214/0312 VRB04KT P6SM BKN010 OVC050
     FM021600 02010KT P6SM SCT020 BKN040
     FM021800 02008KT P6SM SCT060 BKN140
     FM022000 03011KT P6SM SCT060 BKN120
      TEMPO 0221/0301 VRB20G32KT -TSRA BKN050CB
     FM030300 15007KT P6SM SCT080 BKN140
     FM030600 25005KT P6SM SCT120 BKN200=



000
FTUS45 KBOU 021409 AAC
TAFAPA
TAF AMD
KAPA 021409Z 0214/0312 02012G18KT P6SM FEW010 BKN015 OVC020
     FM021600 02010KT P6SM SCT010 BKN020 BKN080
     FM021700 03010KT P6SM SCT025 SCT080 BKN140
     FM021800 05008KT P6SM SCT045 BKN140
     FM022000 06011KT P6SM SCT070 BKN120
      TEMPO 0222/0302 VRB20G32KT -TSRA BKN050CB
     FM030300 15008KT P6SM SCT080 BKN140
     FM030600 19007KT P6SM SCT120 BKN200=



000
FTUS45 KBOU 021409 AAC
TAFAPA
TAF AMD
KAPA 021409Z 0214/0312 02012G18KT P6SM FEW010 BKN015 OVC020
     FM021600 02010KT P6SM SCT010 BKN020 BKN080
     FM021700 03010KT P6SM SCT025 SCT080 BKN140
     FM021800 05008KT P6SM SCT045 BKN140
     FM022000 06011KT P6SM SCT070 BKN120
      TEMPO 0222/0302 VRB20G32KT -TSRA BKN050CB
     FM030300 15008KT P6SM SCT080 BKN140
     FM030600 19007KT P6SM SCT120 BKN200=



000
FTUS45 KBOU 021359 AAC
TAFDEN
TAF AMD
KDEN 021359Z 0214/0318 VRB04KT P6SM OVC030
     FM021600 05010KT P6SM SCT025 BKN050
     FM021800 06008KT P6SM SCT050 BKN140
     FM022000 07011KT P6SM SCT070 BKN120
      TEMPO 0222/0302 VRB20G32KT -TSRA BKN060CB
     FM030300 15008KT P6SM SCT080 BKN140
     FM030600 22009KT P6SM SCT120 BKN200
     FM031400 29006KT P6SM FEW080 SCT120 BKN200=



000
FTUS45 KBOU 021359 AAC
TAFDEN
TAF AMD
KDEN 021359Z 0214/0318 VRB04KT P6SM OVC030
     FM021600 05010KT P6SM SCT025 BKN050
     FM021800 06008KT P6SM SCT050 BKN140
     FM022000 07011KT P6SM SCT070 BKN120
      TEMPO 0222/0302 VRB20G32KT -TSRA BKN060CB
     FM030300 15008KT P6SM SCT080 BKN140
     FM030600 22009KT P6SM SCT120 BKN200
     FM031400 29006KT P6SM FEW080 SCT120 BKN200=



    US Dept of Commerce
    National Oceanic and Atmospheric Administration
    National Weather Service
    1325 East West Highway
    Silver Spring, MD 20910
    Page Author: NWS Internet Services Team
Disclaimer
Information Quality
Credits
Glossary
Privacy Policy
Freedom of Information Act (FOIA)
About Us
Career Opportunities